FAWB/PRY METAR and TAF weather

Enter ICAO airport designator
Station Type Date Time Source
FAWB METAR 2018/12/10 23:00 UTC NOAA

FAWB 102300Z AUTO 10006KT //// // ////// ///// Q////


Station Type Date Time Source
FAWB Decoded METAR 2018/12/10 23:00 UTC NOAA

Wonderboom / Pretoria, South Africa (FAWB) 25-39S 028-13E
Dec 10, 2018 - 06:00 PM EST / 2018.12.10 2300 UTC
Wind: from the E (100 degrees) at 7 MPH (6 KT):0
ob: FAWB 102300Z AUTO 10006KT //// // ////// ///// Q////
cycle: 23

Station Type Date Time Source
FAWB TAF 2018/11/22 10:00 UTC NOAA

TAF FAWB 220900Z 2210/2218 VRB03KT CAVOK TX32/2213Z TN22/2218Z


Example: see airport list